KAST/AST METAR and TAF weather

Enter ICAO airport designator
Station Type Date Time Source
KAST METAR 2018/01/16 08:55 UTC NOAA

KAST 160855Z AUTO 19006KT 10SM CLR 10/08 A3001 RMK AO2 SLP162 60002 T01000083 51015


Station Type Date Time Source
KAST Decoded METAR 2018/01/16 08:55 UTC NOAA

PORT OF ASTORIA AIRPORT, OR, United States (KAST) 46-09N 123-53W 3M
Jan 16, 2018 - 03:55 AM EST / 2018.01.16 0855 UTC
Wind: from the S (190 degrees) at 7 MPH (6 KT):0
Visibility: 10 mile(s):0
Sky conditions: clear
Temperature: 50.0 F (10.0 C)
Dew Point: 46.9 F (8.3 C)
Relative Humidity: 89%
Pressure (altimeter): 30.01 in. Hg (1016 hPa)
Pressure tendency: 0.04 inches (1.5 hPa) higher than three hours ago
ob: KAST 160855Z AUTO 19006KT 10SM CLR 10/08 A3001 RMK AO2 SLP162 60002 T01000083 51015
cycle: 9

Station Type Date Time Source
KAST TAF 2018/01/16 08:54 UTC NOAA

TAF
AMD KAST 160751Z 1608/1706 19010KT P6SM VCSH FEW015 BKN025 OVC035
TEMPO 1608/1612 -SHRA SCT006 BKN018 OVC035
FM161700 19009KT P6SM OVC060


Example: see airport list